Time;durP1;ratioP1;P1;durP2;ratioP2;P2;SDS_P1;SDS_P2;PMS_P1;PMS_P2;Temp;Humidity;BMP_temperature;BMP_pressure;BME280_temperature;BME280_humidity;BME280_pressure;Samples;Min_cycle;Max_cycle;Signal;HPM_P1;HPM_P2
2022/06/28 00:00:21;;;;;;;21.73;14.82;;;21.10;98.90;;;;;;5101746;28;20042;-77
2022/06/28 00:02:46;;;;;;;19.92;14.70;;;21.10;99.00;;;;;;5085453;28;20037;-77
2022/06/28 00:05:12;;;;;;;19.65;15.10;;;21.10;99.00;;;;;;5087643;28;20511;-79
2022/06/28 00:07:37;;;;;;;19.05;14.45;;;21.20;99.20;;;;;;5093500;28;20032;-78
2022/06/28 00:10:04;;;;;;;18.60;14.98;;;21.10;99.30;;;;;;5071195;28;20031;-79
2022/06/28 00:12:29;;;;;;;20.40;15.80;;;21.20;99.40;;;;;;5087481;28;22236;-80
2022/06/28 00:17:40;;;;;;;21.88;16.40;;;21.20;99.10;;;;;;5096768;28;20104;-79
2022/06/28 00:20:06;;;;;;;19.33;15.13;;;21.10;99.10;;;;;;5076142;28;20120;-79
2022/06/28 00:22:31;;;;;;;21.52;16.63;;;21.10;99.10;;;;;;5092001;28;20027;-79
2022/06/28 00:24:57;;;;;;;26.42;18.45;;;21.10;99.40;;;;;;5089066;28;20035;-78
2022/06/28 00:27:22;;;;;;;23.15;16.45;;;21.10;99.20;;;;;;5082242;28;20039;-78
2022/06/28 00:29:48;;;;;;;20.27;16.35;;;21.10;99.20;;;;;;5096762;28;20652;-76
2022/06/28 00:32:13;;;;;;;22.63;17.17;;;21.10;99.30;;;;;;5088169;28;20151;-79
2022/06/28 00:34:39;;;;;;;22.25;17.35;;;21.00;99.30;;;;;;5094496;28;20036;-79
2022/06/28 00:37:04;;;;;;;22.05;16.48;;;21.00;99.40;;;;;;5067617;28;20027;-79
2022/06/28 00:39:30;;;;;;;24.80;17.90;;;21.00;99.40;;;;;;5081072;28;20541;-78
2022/06/28 00:41:56;;;;;;;22.75;18.10;;;21.00;99.20;;;;;;5103362;28;20032;-78
2022/06/28 00:44:22;;;;;;;21.90;17.00;;;21.00;99.30;;;;;;5088636;28;20036;-78
2022/06/28 00:46:48;;;;;;;20.30;16.58;;;21.00;99.00;;;;;;5090803;28;20026;-79
2022/06/28 00:49:14;;;;;;;22.67;17.90;;;21.00;99.00;;;;;;5086375;28;20136;-78
2022/06/28 00:51:39;;;;;;;23.65;17.45;;;21.00;98.90;;;;;;5081179;28;20043;-79
2022/06/28 00:54:06;;;;;;;20.02;16.65;;;21.00;98.70;;;;;;5106320;28;20031;-80
2022/06/28 00:56:31;;;;;;;22.77;17.10;;;21.00;98.70;;;;;;5089399;28;20027;-78
2022/06/28 00:58:57;;;;;;;23.58;16.88;;;21.00;98.60;;;;;;5089454;28;20099;-78
2022/06/28 01:01:24;;;;;;;19.75;16.05;;;21.00;98.80;;;;;;5088657;28;20381;-78
2022/06/28 01:03:50;;;;;;;21.02;15.95;;;21.00;98.70;;;;;;5089398;28;20114;-77
2022/06/28 01:06:15;;;;;;;21.95;16.95;;;21.00;98.50;;;;;;5095733;28;20112;-79
2022/06/28 01:08:41;;;;;;;19.50;16.20;;;21.00;98.40;;;;;;5068908;28;20081;-80
2022/06/28 01:11:18;;;;;;;21.13;16.92;;;21.00;98.50;;;;;;5086404;28;20107;-78
2022/06/28 01:14:08;;;;;;;20.55;16.58;;;21.00;98.60;;;;;;5058669;28;20037;-78
2022/06/28 01:16:35;;;;;;;21.92;18.05;;;21.00;98.30;;;;;;5055033;28;20119;-79
2022/06/28 01:19:01;;;;;;;22.48;18.45;;;21.00;98.10;;;;;;5085799;28;20492;-80
2022/06/28 01:21:28;;;;;;;20.90;17.10;;;21.00;98.10;;;;;;5089124;28;20036;-79
2022/06/28 01:23:54;;;;;;;21.83;16.77;;;21.00;98.20;;;;;;5105392;28;20035;-79
2022/06/28 01:26:21;;;;;;;23.05;18.30;;;21.00;98.30;;;;;;5092348;28;20019;-79
2022/06/28 01:28:47;;;;;;;21.88;18.00;;;20.90;98.20;;;;;;5099355;28;20081;-80
2022/06/28 01:31:13;;;;;;;21.67;16.70;;;20.90;98.40;;;;;;5089992;28;20143;-78
2022/06/28 01:33:40;;;;;;;24.45;17.90;;;20.90;98.50;;;;;;5087959;28;20413;-78
2022/06/28 01:36:09;;;;;;;27.05;20.35;;;20.90;98.60;;;;;;5063408;28;20042;-79
2022/06/28 01:38:36;;;;;;;22.13;17.80;;;20.80;98.80;;;;;;5087234;28;20097;-78
2022/06/28 01:41:02;;;;;;;22.88;18.42;;;20.80;98.90;;;;;;5092427;28;20046;-78
2022/06/28 01:43:29;;;;;;;22.98;18.23;;;20.80;99.20;;;;;;5107439;28;20462;-79
2022/06/28 01:45:57;;;;;;;23.73;18.73;;;20.80;99.30;;;;;;5082397;28;20035;-78
2022/06/28 01:48:22;;;;;;;25.65;18.67;;;20.80;99.40;;;;;;5087437;28;20043;-78
2022/06/28 01:50:49;;;;;;;28.55;20.30;;;20.80;99.50;;;;;;5088121;28;20397;-79
2022/06/28 01:53:14;;;;;;;28.45;20.92;;;20.80;99.50;;;;;;5081765;28;20424;-78
2022/06/28 01:55:41;;;;;;;27.52;20.38;;;20.70;99.70;;;;;;5091541;28;20085;-78
2022/06/28 01:58:07;;;;;;;30.88;23.83;;;20.70;99.90;;;;;;5103615;28;20032;-78
2022/06/28 02:00:32;;;;;;;33.08;22.48;;;20.60;99.90;;;;;;5090590;28;20092;-78
2022/06/28 02:02:58;;;;;;;29.65;21.00;;;20.50;99.90;;;;;;5107543;28;20031;-78
2022/06/28 02:05:24;;;;;;;30.10;22.13;;;20.50;99.90;;;;;;5077145;28;20064;-78
2022/06/28 02:07:51;;;;;;;30.98;23.55;;;20.40;99.90;;;;;;5075435;28;20484;-79
2022/06/28 02:10:18;;;;;;;32.17;22.98;;;20.40;99.90;;;;;;5073992;28;20397;-78
2022/06/28 02:12:44;;;;;;;34.17;23.00;;;20.40;99.90;;;;;;5089718;28;20028;-78
2022/06/28 02:15:10;;;;;;;31.48;23.23;;;20.40;99.90;;;;;;5104053;28;20034;-79
2022/06/28 02:17:35;;;;;;;32.08;22.42;;;20.40;99.90;;;;;;5091958;28;20027;-77
2022/06/28 02:20:01;;;;;;;28.35;21.73;;;20.50;99.90;;;;;;5104716;28;20039;-79
2022/06/28 02:22:27;;;;;;;30.00;21.95;;;20.50;99.90;;;;;;5092400;28;20032;-78
2022/06/28 02:24:53;;;;;;;32.05;23.63;;;20.50;99.90;;;;;;5092479;28;20492;-78
2022/06/28 02:27:18;;;;;;;31.58;21.77;;;20.50;99.90;;;;;;5099314;28;20036;-76
2022/06/28 02:29:44;;;;;;;30.05;22.02;;;20.60;99.90;;;;;;5092654;28;20031;-79
2022/06/28 02:32:09;;;;;;;29.83;20.98;;;20.60;99.90;;;;;;5111060;28;20066;-77
2022/06/28 02:40:21;;;;;;;30.60;22.15;;;20.60;99.90;;;;;;5080193;28;20031;-78
2022/06/28 02:42:47;;;;;;;32.45;22.35;;;20.60;99.90;;;;;;5083262;28;20032;-77
2022/06/28 02:45:12;;;;;;;32.50;22.25;;;20.70;99.90;;;;;;5072413;28;20028;-79
2022/06/28 02:47:38;;;;;;;33.45;24.77;;;20.70;99.90;;;;;;5093567;28;20439;-77
2022/06/28 02:50:04;;;;;;;30.50;22.48;;;20.70;99.90;;;;;;5094777;27;20031;-79
2022/06/28 02:52:29;;;;;;;38.75;23.30;;;20.70;99.90;;;;;;5064433;28;20040;-79
2022/06/28 02:54:55;;;;;;;32.63;22.95;;;20.70;99.90;;;;;;5097546;28;20032;-79
2022/06/28 02:57:20;;;;;;;30.52;22.83;;;20.60;99.90;;;;;;5082153;28;20166;-76
2022/06/28 02:59:46;;;;;;;32.95;24.15;;;20.60;99.90;;;;;;5095043;28;20378;-77
2022/06/28 03:02:11;;;;;;;32.35;22.40;;;20.70;99.90;;;;;;5077934;28;20061;-77
2022/06/28 03:04:37;;;;;;;31.85;21.23;;;20.70;99.90;;;;;;5100073;28;20028;-79
2022/06/28 03:07:03;;;;;;;29.58;21.95;;;20.70;99.90;;;;;;5091374;28;20067;-78
2022/06/28 03:09:28;;;;;;;33.63;22.85;;;20.70;99.90;;;;;;5095770;28;20028;-78
2022/06/28 03:11:53;;;;;;;32.92;23.55;;;20.70;99.90;;;;;;5062416;28;20037;-79
2022/06/28 03:14:19;;;;;;;29.15;21.73;;;20.70;99.90;;;;;;5085502;28;20039;-77
2022/06/28 03:16:44;;;;;;;36.20;24.13;;;20.70;99.90;;;;;;5080551;28;20031;-77
2022/06/28 03:19:10;;;;;;;32.33;22.83;;;20.70;99.90;;;;;;5087391;28;20150;-78
2022/06/28 03:21:35;;;;;;;33.83;23.67;;;20.70;99.90;;;;;;5100831;28;20122;-76
2022/06/28 03:24:01;;;;;;;33.50;22.33;;;20.70;99.90;;;;;;5084811;28;20040;-78
2022/06/28 03:26:26;;;;;;;32.13;21.38;;;20.80;99.90;;;;;;5105064;28;20035;-80
2022/06/28 03:28:52;;;;;;;32.40;23.15;;;20.80;99.90;;;;;;5080642;28;20036;-76
2022/06/28 03:31:17;;;;;;;36.65;23.60;;;20.80;99.90;;;;;;5066080;28;20047;-78
2022/06/28 03:33:42;;;;;;;31.05;22.25;;;20.80;99.90;;;;;;5104968;28;20055;-79
2022/06/28 03:36:08;;;;;;;29.40;21.50;;;20.80;99.90;;;;;;5083022;28;20039;-80
2022/06/28 03:38:33;;;;;;;28.30;19.73;;;20.80;99.90;;;;;;5096162;28;20221;-77
2022/06/28 03:40:59;;;;;;;28.30;21.67;;;20.80;99.90;;;;;;5089407;28;20058;-79
2022/06/28 03:43:25;;;;;;;32.70;22.27;;;20.90;99.90;;;;;;5083007;28;20075;-78
2022/06/28 03:45:50;;;;;;;33.53;22.75;;;20.90;99.90;;;;;;5086429;28;20029;-81
2022/06/28 03:48:16;;;;;;;29.30;20.95;;;20.90;99.90;;;;;;5088460;28;20039;-79
2022/06/28 03:50:41;;;;;;;32.55;24.52;;;20.90;99.90;;;;;;5091905;28;20496;-78
2022/06/28 03:53:07;;;;;;;33.47;23.35;;;20.90;99.90;;;;;;5090388;28;20051;-80
2022/06/28 03:55:33;;;;;;;33.83;24.55;;;20.90;99.90;;;;;;5085955;28;20065;-77
2022/06/28 03:57:58;;;;;;;32.45;23.67;;;21.00;99.90;;;;;;5082272;28;20100;-79
2022/06/28 04:00:24;;;;;;;33.00;23.52;;;21.00;99.90;;;;;;5077508;28;20111;-78
2022/06/28 04:02:49;;;;;;;36.20;23.90;;;20.90;99.90;;;;;;5089733;28;20077;-79
2022/06/28 04:05:15;;;;;;;35.13;24.08;;;20.90;99.90;;;;;;5070931;28;20502;-77
2022/06/28 04:07:41;;;;;;;35.92;24.05;;;20.90;99.90;;;;;;5065512;28;20020;-80
2022/06/28 04:10:07;;;;;;;32.95;22.23;;;20.90;99.90;;;;;;5092935;28;20029;-78
2022/06/28 04:12:32;;;;;;;34.47;23.48;;;20.90;99.90;;;;;;5082548;28;20032;-80
2022/06/28 04:14:58;;;;;;;32.40;22.85;;;20.90;99.90;;;;;;5098312;28;20373;-80
2022/06/28 04:17:23;;;;;;;35.88;24.42;;;20.90;99.90;;;;;;5074453;28;20045;-78
2022/06/28 04:19:49;;;;;;;33.80;24.50;;;20.90;99.90;;;;;;5078114;28;20088;-80
2022/06/28 04:22:14;;;;;;;35.70;24.20;;;20.90;99.90;;;;;;5053980;28;20044;-79
2022/06/28 04:24:40;;;;;;;32.20;22.45;;;20.70;99.90;;;;;;5071891;28;20111;-80
2022/06/28 04:27:05;;;;;;;34.42;24.90;;;20.70;99.90;;;;;;5072157;28;20020;-77
2022/06/28 04:29:31;;;;;;;21.70;17.27;;;20.70;99.90;;;;;;5071250;28;20166;-79
2022/06/28 04:31:56;;;;;;;27.65;20.13;;;20.60;99.90;;;;;;5080463;28;20099;-80
2022/06/28 04:34:22;;;;;;;26.15;18.17;;;20.50;99.90;;;;;;5089596;28;20047;-79
2022/06/28 04:36:47;;;;;;;28.27;16.88;;;20.40;99.90;;;;;;5084447;28;20060;-79
2022/06/28 04:39:13;;;;;;;21.73;16.52;;;20.30;99.90;;;;;;5089424;28;20358;-80
2022/06/28 04:41:38;;;;;;;22.10;15.70;;;20.30;99.90;;;;;;5084070;28;20123;-80
2022/06/28 04:44:04;;;;;;;20.42;15.10;;;20.20;99.90;;;;;;5071225;28;20028;-77
2022/06/28 04:46:29;;;;;;;17.25;12.32;;;20.20;99.90;;;;;;5101738;28;20050;-80
2022/06/28 04:48:55;;;;;;;14.13;11.13;;;20.10;99.90;;;;;;5093580;28;20105;-79
2022/06/28 04:51:20;;;;;;;16.67;11.45;;;20.00;99.90;;;;;;5082676;28;20393;-81
2022/06/28 04:53:47;;;;;;;15.82;11.48;;;19.90;99.90;;;;;;5081465;28;20084;-78
2022/06/28 04:56:13;;;;;;;15.70;10.23;;;19.70;99.90;;;;;;5076532;28;20032;-78
2022/06/28 04:58:39;;;;;;;13.75;8.52;;;19.60;99.90;;;;;;5109017;28;20488;-79
2022/06/28 05:01:05;;;;;;;8.35;7.10;;;19.50;99.90;;;;;;5077173;28;20126;-78
2022/06/28 05:03:31;;;;;;;7.95;6.85;;;19.50;99.90;;;;;;5073066;28;20035;-79
2022/06/28 05:05:57;;;;;;;7.80;6.15;;;19.40;99.90;;;;;;5082064;28;20028;-81
2022/06/28 05:08:23;;;;;;;10.20;6.20;;;19.40;99.90;;;;;;5098000;28;20037;-78
2022/06/28 05:10:48;;;;;;;10.63;6.68;;;19.30;99.90;;;;;;5079173;28;20035;-79
2022/06/28 05:13:14;;;;;;;13.07;6.50;;;19.40;99.90;;;;;;5096164;28;20111;-79
2022/06/28 05:15:39;;;;;;;10.25;6.28;;;19.20;99.90;;;;;;5090842;28;20024;-78
2022/06/28 05:18:05;;;;;;;12.35;6.47;;;19.10;99.90;;;;;;5098378;28;20032;-79
2022/06/28 05:20:30;;;;;;;8.30;6.80;;;19.00;99.90;;;;;;5105482;28;20110;-79
2022/06/28 05:22:56;;;;;;;7.82;6.10;;;19.00;99.90;;;;;;5093104;28;20222;-79
2022/06/28 05:25:21;;;;;;;6.32;5.60;;;19.10;99.90;;;;;;5089712;28;20032;-79
2022/06/28 05:27:47;;;;;;;10.27;5.80;;;19.00;99.90;;;;;;5093200;28;20402;-79
2022/06/28 05:30:13;;;;;;;8.73;5.93;;;19.00;99.90;;;;;;5093545;28;20074;-79
2022/06/28 05:32:38;;;;;;;6.18;5.15;;;19.00;99.90;;;;;;5111466;27;20056;-80
2022/06/28 05:35:05;;;;;;;7.28;5.82;;;19.00;99.90;;;;;;5093738;28;20062;-77
2022/06/28 05:37:31;;;;;;;6.53;5.55;;;19.00;99.90;;;;;;5088297;28;20055;-76
2022/06/28 05:39:57;;;;;;;7.95;5.95;;;19.10;99.90;;;;;;5089263;28;20461;-76
2022/06/28 05:42:22;;;;;;;9.40;7.20;;;19.10;99.90;;;;;;5096421;28;20040;-77
2022/06/28 05:44:48;;;;;;;7.53;6.20;;;19.30;99.90;;;;;;5108488;28;20038;-77
2022/06/28 05:47:13;;;;;;;14.45;6.43;;;19.30;99.90;;;;;;5089719;28;20054;-76
2022/06/28 05:49:39;;;;;;;9.27;7.05;;;19.50;99.90;;;;;;5090228;28;20031;-75
2022/06/28 05:52:06;;;;;;;8.93;7.22;;;19.60;99.90;;;;;;5095576;28;20042;-75
2022/06/28 05:54:31;;;;;;;8.40;7.18;;;19.70;99.90;;;;;;5113196;28;20031;-76
2022/06/28 05:56:57;;;;;;;8.63;7.72;;;19.70;99.80;;;;;;5111009;28;20080;-77
2022/06/28 05:59:23;;;;;;;9.82;8.25;;;19.70;99.70;;;;;;5096803;28;20044;-80
2022/06/28 06:01:48;;;;;;;10.50;9.05;;;19.80;99.90;;;;;;5074191;28;20076;-79
2022/06/28 06:04:14;;;;;;;11.80;8.82;;;19.80;99.90;;;;;;5076123;28;20060;-80
2022/06/28 06:06:39;;;;;;;11.65;9.15;;;19.90;99.90;;;;;;5105991;28;20035;-79
2022/06/28 06:09:05;;;;;;;14.30;9.55;;;19.90;99.90;;;;;;5113565;28;20036;-80
2022/06/28 06:11:30;;;;;;;13.00;9.82;;;20.00;99.70;;;;;;5092223;28;20091;-79
2022/06/28 06:13:56;;;;;;;12.90;10.35;;;20.00;99.60;;;;;;5093188;28;20059;-80
2022/06/28 06:16:21;;;;;;;15.35;11.32;;;20.10;99.60;;;;;;5090980;28;20754;-79
2022/06/28 06:18:47;;;;;;;13.00;9.68;;;20.20;99.20;;;;;;5080072;28;20081;-73
2022/06/28 06:21:12;;;;;;;12.02;10.25;;;20.30;98.90;;;;;;5071820;28;20044;-74
2022/06/28 06:23:38;;;;;;;11.48;9.10;;;20.50;98.50;;;;;;5073093;28;20032;-74
2022/06/28 06:26:03;;;;;;;10.23;8.77;;;20.60;97.70;;;;;;5086133;28;20150;-74
2022/06/28 06:28:30;;;;;;;11.32;9.23;;;20.60;97.20;;;;;;5092059;28;20633;-76
2022/06/28 06:30:55;;;;;;;12.50;9.75;;;20.70;97.40;;;;;;5079202;28;20053;-75
2022/06/28 06:33:21;;;;;;;13.93;9.35;;;20.60;97.30;;;;;;5072701;28;20120;-75
2022/06/28 06:35:46;;;;;;;11.43;9.32;;;20.60;97.50;;;;;;5082885;28;20063;-75
2022/06/28 06:38:12;;;;;;;14.50;9.63;;;20.70;97.20;;;;;;5092218;28;20046;-75
2022/06/28 06:40:38;;;;;;;10.55;9.45;;;20.80;97.40;;;;;;5090003;28;20042;-74
2022/06/28 06:43:04;;;;;;;12.23;9.63;;;20.80;97.30;;;;;;5084758;28;20446;-76
2022/06/28 06:45:29;;;;;;;14.13;9.43;;;20.90;97.00;;;;;;5084347;28;20068;-81
2022/06/28 06:47:55;;;;;;;13.93;9.25;;;21.00;97.10;;;;;;5075271;28;20054;-80
2022/06/28 06:50:22;;;;;;;10.93;9.82;;;21.00;97.10;;;;;;5101661;28;20107;-82
2022/06/28 06:52:48;;;;;;;12.45;9.85;;;20.80;97.50;;;;;;5090507;28;20032;-80
2022/06/28 06:55:13;;;;;;;13.13;9.13;;;20.60;97.60;;;;;;5072749;28;20035;-79
2022/06/28 06:57:39;;;;;;;10.02;8.27;;;20.50;97.50;;;;;;5096969;28;20050;-80
2022/06/28 07:00:05;;;;;;;10.05;8.27;;;20.30;97.70;;;;;;5103163;28;20488;-81
2022/06/28 07:02:31;;;;;;;11.82;8.95;;;20.30;97.80;;;;;;5080427;28;20513;-81
2022/06/28 07:04:57;;;;;;;9.75;8.63;;;20.40;97.60;;;;;;5095221;28;20027;-81
2022/06/28 07:07:23;;;;;;;8.63;7.72;;;20.50;97.40;;;;;;5096241;28;20028;-83
2022/06/28 07:09:49;;;;;;;9.07;8.18;;;20.40;97.20;;;;;;5096476;28;20466;-81
2022/06/28 07:12:14;;;;;;;9.10;8.18;;;20.40;97.40;;;;;;5108198;28;20055;-80
2022/06/28 07:14:40;;;;;;;8.48;7.65;;;20.40;97.50;;;;;;5091236;28;20115;-81
2022/06/28 07:17:05;;;;;;;8.35;7.13;;;20.30;97.10;;;;;;5090810;28;20532;-82
2022/06/28 07:19:31;;;;;;;11.52;8.27;;;20.30;97.30;;;;;;5111397;28;20412;-81
2022/06/28 07:21:56;;;;;;;9.57;7.60;;;20.30;97.40;;;;;;5109702;28;20051;-82
2022/06/28 07:24:22;;;;;;;8.20;7.25;;;20.40;97.50;;;;;;5111297;28;20043;-81
2022/06/28 07:26:49;;;;;;;8.82;7.07;;;20.50;97.40;;;;;;5104492;28;20431;-81
2022/06/28 07:29:14;;;;;;;8.80;6.78;;;20.60;97.00;;;;;;5072713;28;20663;-82
2022/06/28 07:31:41;;;;;;;9.32;6.82;;;20.60;96.90;;;;;;5096428;28;20030;-82
2022/06/28 07:34:07;;;;;;;8.23;7.32;;;20.70;96.40;;;;;;5093471;28;20037;-81
2022/06/28 07:36:33;;;;;;;6.95;6.28;;;20.90;96.50;;;;;;5106346;28;20024;-82
2022/06/28 07:38:58;;;;;;;6.60;5.90;;;21.10;96.00;;;;;;5073212;28;20032;-82
2022/06/28 07:41:25;;;;;;;6.88;6.15;;;21.20;95.90;;;;;;5091975;28;20067;-82
2022/06/28 07:43:51;;;;;;;8.75;6.45;;;21.30;95.10;;;;;;5073121;28;20024;-83
2022/06/28 07:46:20;;;;;;;7.25;6.03;;;21.40;95.00;;;;;;5090550;28;20468;-82
2022/06/28 07:48:46;;;;;;;5.95;5.30;;;21.40;94.80;;;;;;5074389;28;20020;-82
2022/06/28 07:53:57;;;;;;;7.03;6.32;;;21.40;94.70;;;;;;5101531;28;20499;-82
2022/06/28 07:56:23;;;;;;;7.45;6.43;;;21.20;95.00;;;;;;5111944;28;20139;-82
2022/06/28 07:58:49;;;;;;;9.65;5.97;;;21.20;95.00;;;;;;5103685;28;20675;-82
2022/06/28 08:01:15;;;;;;;8.73;5.88;;;21.10;95.40;;;;;;5091224;28;20054;-81
2022/06/28 08:03:41;;;;;;;7.90;5.38;;;21.30;94.90;;;;;;5097660;28;20433;-82
2022/06/28 08:06:07;;;;;;;8.00;5.35;;;21.50;94.50;;;;;;5109992;28;20031;-81
2022/06/28 08:08:32;;;;;;;7.05;6.00;;;21.70;93.90;;;;;;5113803;28;20028;-83
2022/06/28 08:10:58;;;;;;;5.60;5.05;;;21.90;93.30;;;;;;5109938;28;20038;-81
2022/06/28 08:13:24;;;;;;;9.05;5.30;;;21.80;93.50;;;;;;5104284;28;20044;-82
2022/06/28 08:15:49;;;;;;;7.30;5.63;;;21.80;93.50;;;;;;5126889;27;20020;-81
2022/06/28 08:18:15;;;;;;;6.70;5.85;;;21.80;93.60;;;;;;5074600;28;20047;-82
2022/06/28 08:20:41;;;;;;;6.90;5.25;;;21.80;93.70;;;;;;5095181;28;20036;-82
2022/06/28 08:23:06;;;;;;;6.70;6.10;;;21.90;94.00;;;;;;5104282;28;20032;-82
2022/06/28 08:25:32;;;;;;;4.95;4.45;;;22.00;94.10;;;;;;5079769;28;20110;-81
2022/06/28 08:27:58;;;;;;;5.38;4.93;;;22.00;93.20;;;;;;5094938;28;20024;-82
2022/06/28 08:30:25;;;;;;;5.57;3.85;;;22.00;93.50;;;;;;5073470;28;20036;-82
2022/06/28 08:32:51;;;;;;;4.97;3.88;;;22.10;93.20;;;;;;5093995;28;20036;-81
2022/06/28 08:35:17;;;;;;;4.47;4.07;;;22.30;91.80;;;;;;5095862;28;20482;-83
2022/06/28 08:37:42;;;;;;;4.45;3.63;;;22.20;92.00;;;;;;5106582;28;20046;-82
2022/06/28 08:40:08;;;;;;;4.85;3.25;;;22.40;91.40;;;;;;5101099;28;20056;-81
2022/06/28 08:42:37;;;;;;;4.03;3.63;;;22.50;91.70;;;;;;5090906;28;20048;-83
2022/06/28 08:45:03;;;;;;;5.32;3.53;;;22.70;91.70;;;;;;5076967;28;20405;-82
2022/06/28 08:47:38;;;;;;;4.28;2.95;;;23.00;91.20;;;;;;5071093;28;20039;-83
2022/06/28 08:50:07;;;;;;;4.57;2.35;;;23.10;90.20;;;;;;5072923;28;20025;-82
2022/06/28 08:52:35;;;;;;;4.93;2.92;;;23.00;89.60;;;;;;5077408;28;20039;-83
2022/06/28 08:55:01;;;;;;;5.45;2.28;;;23.00;89.50;;;;;;5092428;28;20517;-83
2022/06/28 08:57:30;;;;;;;4.80;2.55;;;23.10;90.60;;;;;;5105387;28;20143;-83
2022/06/28 08:59:57;;;;;;;3.25;2.67;;;23.20;86.40;;;;;;5090476;28;20430;-82
2022/06/28 09:02:22;;;;;;;5.53;2.30;;;23.20;87.30;;;;;;5072187;28;20027;-83
2022/06/28 09:04:53;;;;;;;2.92;1.75;;;23.20;87.40;;;;;;5102194;28;20028;-83
2022/06/28 09:07:22;;;;;;;3.00;2.17;;;23.40;89.20;;;;;;5082175;28;20159;-84
2022/06/28 09:09:49;;;;;;;3.22;1.80;;;23.60;86.00;;;;;;5090313;28;20039;-83
2022/06/28 09:12:15;;;;;;;4.97;2.78;;;23.90;88.40;;;;;;5070803;28;20036;-83
2022/06/28 09:14:40;;;;;;;2.83;2.45;;;24.00;85.90;;;;;;5078182;28;20160;-83
2022/06/28 09:17:18;;;;;;;4.00;2.65;;;24.10;85.40;;;;;;5078147;28;20060;-82
2022/06/28 09:19:44;;;;;;;2.47;1.90;;;24.10;84.30;;;;;;5081286;28;20107;-83
2022/06/28 09:22:26;;;;;;;4.25;2.10;;;24.10;85.90;;;;;;5103621;28;20135;-83
2022/06/28 09:24:51;;;;;;;1.95;1.67;;;24.20;83.90;;;;;;5059552;28;20033;-84
2022/06/28 09:27:27;;;;;;;2.97;1.80;;;24.30;85.10;;;;;;5098820;28;20127;-83
2022/06/28 09:29:53;;;;;;;2.15;1.60;;;24.50;82.40;;;;;;5076766;28;20056;-82
2022/06/28 09:32:29;;;;;;;2.13;1.67;;;24.30;82.10;;;;;;5059873;28;20056;-83
2022/06/28 09:34:58;;;;;;;1.90;1.50;;;24.30;81.70;;;;;;5059575;28;20078;-83
2022/06/28 09:40:23;;;;;;;2.03;1.20;;;24.10;81.40;;;;;;5088175;28;20039;-83
2022/06/28 09:43:04;;;;;;;3.05;1.52;;;24.10;79.60;;;;;;5078485;28;20043;-75
2022/06/28 09:45:30;;;;;;;3.67;2.53;;;24.10;80.30;;;;;;5073121;28;20062;-76
2022/06/28 09:47:56;;;;;;;3.38;1.35;;;24.10;80.90;;;;;;5084960;28;20067;-78
2022/06/28 09:50:25;;;;;;;4.55;2.60;;;24.00;77.70;;;;;;5064398;28;20060;-73
2022/06/28 09:52:51;;;;;;;3.15;1.65;;;24.00;79.60;;;;;;5077263;28;20035;-75
2022/06/28 09:55:18;;;;;;;4.40;1.60;;;24.10;78.70;;;;;;5092789;28;20036;-77
2022/06/28 09:57:45;;;;;;;2.40;1.50;;;24.30;79.20;;;;;;5074628;28;20077;-75
2022/06/28 10:00:16;;;;;;;2.25;1.60;;;24.50;78.60;;;;;;5091872;28;20047;-76
2022/06/28 10:02:43;;;;;;;2.00;1.40;;;24.80;79.80;;;;;;5092329;28;20043;-77
2022/06/28 10:05:09;;;;;;;2.47;1.27;;;25.00;74.30;;;;;;5090709;28;20028;-77
2022/06/28 10:07:35;;;;;;;9.32;1.75;;;25.10;76.30;;;;;;5091998;28;20471;-77
2022/06/28 10:10:04;;;;;;;3.92;1.63;;;25.20;74.60;;;;;;5079073;28;20492;-75
2022/06/28 10:15:19;;;;;;;2.67;1.52;;;25.40;73.60;;;;;;5086909;28;20089;-76
2022/06/28 10:17:59;;;;;;;1.05;0.90;;;25.50;73.80;;;;;;5072071;28;20025;-79
2022/06/28 10:20:30;;;;;;;0.80;0.80;;;25.40;72.50;;;;;;5090671;28;20044;-77
2022/06/28 10:23:24;;;;;;;3.65;1.17;;;25.30;73.70;;;;;;5084145;28;20492;-81
2022/06/28 10:26:07;;;;;;;4.82;0.93;;;25.20;72.00;;;;;;5091786;28;20099;-75
2022/06/28 10:28:37;;;;;;;4.93;1.95;;;25.20;75.30;;;;;;5075356;28;20084;-78
2022/06/28 10:31:21;;;;;;;1.58;1.27;;;25.40;73.60;;;;;;5076357;28;20028;-81
2022/06/28 10:33:47;;;;;;;2.13;1.17;;;25.60;74.80;;;;;;5087762;28;20060;-79
2022/06/28 10:36:14;;;;;;;1.60;1.00;;;25.80;74.30;;;;;;5087134;28;20032;-80
2022/06/28 10:39:06;;;;;;;1.27;1.10;;;25.80;70.60;;;;;;5090605;28;20024;-82
2022/06/28 10:41:46;;;;;;;5.07;1.83;;;25.80;69.50;;;;;;5071896;28;20036;-81
2022/06/28 10:44:15;;;;;;;2.17;1.20;;;25.90;73.00;;;;;;5079093;28;20728;-80
2022/06/28 10:46:41;;;;;;;3.10;1.00;;;26.10;71.40;;;;;;5073276;28;20035;-79
2022/06/28 10:49:14;;;;;;;1.75;1.25;;;26.20;70.80;;;;;;5095125;28;20038;-78
2022/06/28 10:51:58;;;;;;;;;;;26.00;70.60;;;;;;5091641;28;20032;-78
2022/06/28 10:54:24;;;;;;;1.80;1.25;;;25.90;70.30;;;;;;5073212;28;19908;-80
2022/06/28 10:56:49;;;;;;;1.55;1.30;;;25.90;71.80;;;;;;5090399;28;20039;-78
2022/06/28 10:59:17;;;;;;;1.90;1.40;;;26.10;69.10;;;;;;5091387;28;20027;-82
2022/06/28 11:01:45;;;;;;;1.98;1.08;;;26.40;67.60;;;;;;5072989;28;20024;-79
2022/06/28 11:04:24;;;;;;;4.53;1.10;;;26.50;67.30;;;;;;5073045;28;20032;-80
2022/06/28 11:06:55;;;;;;;1.45;1.13;;;26.80;67.50;;;;;;5091539;28;20077;-79
2022/06/28 11:09:47;;;;;;;3.20;1.17;;;27.00;67.00;;;;;;5091494;28;20028;-83
2022/06/28 11:12:18;;;;;;;2.40;1.00;;;26.90;67.50;;;;;;5107181;27;20435;-78
2022/06/28 11:14:51;;;;;;;1.33;0.93;;;27.00;65.50;;;;;;5091837;28;20038;-81
2022/06/28 11:17:28;;;;;;;2.00;1.20;;;27.00;67.20;;;;;;5091034;28;20032;-83
2022/06/28 11:19:56;;;;;;;1.55;0.93;;;27.10;63.70;;;;;;5096634;28;20388;-79
2022/06/28 11:22:28;;;;;;;1.65;1.33;;;27.00;64.30;;;;;;5093737;28;20032;-79
2022/06/28 11:24:56;;;;;;;3.20;1.02;;;27.00;64.40;;;;;;5113155;28;20118;-81
2022/06/28 11:27:22;;;;;;;2.17;1.45;;;27.00;63.20;;;;;;5098113;28;20803;-82
2022/06/28 11:30:01;;;;;;;2.55;1.15;;;26.90;63.50;;;;;;5087672;28;20476;-80
2022/06/28 11:32:32;;;;;;;3.22;1.20;;;27.00;65.20;;;;;;5082949;28;20039;-82
2022/06/28 11:35:00;;;;;;;1.88;1.17;;;27.10;63.80;;;;;;5085395;28;20062;-78
2022/06/28 11:37:26;;;;;;;3.53;1.23;;;27.20;62.80;;;;;;5091023;28;20101;-79
2022/06/28 11:40:00;;;;;;;2.63;0.88;;;27.20;65.00;;;;;;5100401;28;20401;-80
2022/06/28 11:42:27;;;;;;;1.33;1.02;;;27.10;62.70;;;;;;5068108;28;20159;-77
2022/06/28 11:44:53;;;;;;;2.00;1.08;;;27.10;62.70;;;;;;5087180;28;20060;-78
2022/06/28 11:47:20;;;;;;;0.90;0.75;;;27.20;61.70;;;;;;5068725;28;20031;-80
2022/06/28 11:49:51;;;;;;;1.52;0.93;;;27.20;60.70;;;;;;5082662;28;20020;-78
2022/06/28 11:52:18;;;;;;;1.40;0.80;;;27.40;62.10;;;;;;5073329;28;20036;-80
2022/06/28 11:54:45;;;;;;;2.42;0.98;;;27.60;64.60;;;;;;5081697;28;20024;-79
2022/06/28 11:57:17;;;;;;;2.20;0.75;;;27.90;60.60;;;;;;5073594;28;20032;-80
2022/06/28 11:59:53;;;;;;;;;;;28.10;58.90;;;;;;5072388;28;20138;-84
2022/06/28 12:02:40;;;;;;;1.95;1.10;;;28.30;58.60;;;;;;5083514;28;19911;-78
2022/06/28 12:05:08;;;;;;;1.63;1.00;;;28.50;64.00;;;;;;5089462;28;20062;-78
2022/06/28 12:07:36;;;;;;;1.52;0.73;;;28.80;59.70;;;;;;5075487;28;20517;-78
2022/06/28 12:10:03;;;;;;;1.33;0.82;;;28.90;57.70;;;;;;5081580;28;20042;-78
2022/06/28 12:12:29;;;;;;;1.48;1.00;;;28.70;58.70;;;;;;5075029;28;20034;-80
2022/06/28 12:14:56;;;;;;;5.82;1.27;;;28.60;61.30;;;;;;5095203;28;20051;-77
2022/06/28 12:17:22;;;;;;;0.98;0.88;;;28.80;57.70;;;;;;5085995;28;20054;-83
2022/06/28 12:19:48;;;;;;;1.60;1.02;;;28.80;57.20;;;;;;5082636;28;20040;-80
2022/06/28 12:22:17;;;;;;;1.52;0.82;;;28.80;56.70;;;;;;5082608;28;20093;-82
2022/06/28 12:24:55;;;;;;;2.60;0.75;;;28.50;55.90;;;;;;5063769;28;20119;-78
2022/06/28 12:27:23;;;;;;;1.00;0.82;;;28.50;56.80;;;;;;5071548;28;20028;-77
2022/06/28 12:29:54;;;;;;;1.10;0.82;;;28.50;56.60;;;;;;5086240;28;20089;-78
2022/06/28 12:32:21;;;;;;;2.55;0.68;;;28.50;56.90;;;;;;5064969;28;20036;-79
2022/06/28 12:34:47;;;;;;;3.63;0.82;;;28.50;56.50;;;;;;5077518;28;20032;-79
2022/06/28 12:37:13;;;;;;;1.60;0.77;;;28.60;54.90;;;;;;5084907;28;20474;-78
2022/06/28 12:39:39;;;;;;;1.25;0.93;;;28.70;54.60;;;;;;5086419;28;20028;-78
2022/06/28 12:42:05;;;;;;;1.40;0.80;;;28.80;55.00;;;;;;5087618;28;20044;-82
2022/06/28 12:44:32;;;;;;;1.70;0.85;;;28.80;53.80;;;;;;5089265;28;20054;-77
2022/06/28 12:46:58;;;;;;;2.25;0.90;;;28.70;54.50;;;;;;5066346;28;20035;-79
2022/06/28 12:49:23;;;;;;;1.75;0.63;;;28.50;54.40;;;;;;5069712;28;20032;-81
2022/06/28 12:51:50;;;;;;;0.93;0.60;;;28.40;53.60;;;;;;5077114;28;20039;-78
2022/06/28 12:54:17;;;;;;;2.85;0.50;;;28.40;54.10;;;;;;5071541;28;20052;-82